sensor_id;sensor_type;location;lat;lon;timestamp;P1;durP1;ratioP1;P2;durP2;ratioP2
76978;SDS011;65911;47.502;19.148;2023-05-10T00:00:43;4.05;;;2.40;;
76978;SDS011;65911;47.502;19.148;2023-05-10T00:03:45;3.67;;;1.98;;
76978;SDS011;65911;47.502;19.148;2023-05-10T00:06:48;3.50;;;2.30;;
76978;SDS011;65911;47.502;19.148;2023-05-10T00:09:50;3.95;;;2.10;;
76978;SDS011;65911;47.502;19.148;2023-05-10T00:12:53;3.88;;;2.22;;
76978;SDS011;65911;47.502;19.148;2023-05-10T00:15:55;5.97;;;2.10;;
76978;SDS011;65911;47.502;19.148;2023-05-10T00:18:57;3.80;;;1.90;;
76978;SDS011;65911;47.502;19.148;2023-05-10T00:22:01;2.78;;;1.83;;
76978;SDS011;65911;47.502;19.148;2023-05-10T00:25:03;4.38;;;2.20;;
76978;SDS011;65911;47.502;19.148;2023-05-10T00:28:06;2.03;;;1.45;;
76978;SDS011;65911;47.502;19.148;2023-05-10T00:31:08;5.25;;;2.30;;
76978;SDS011;65911;47.502;19.148;2023-05-10T00:34:10;3.25;;;2.10;;
76978;SDS011;65911;47.502;19.148;2023-05-10T00:37:12;2.57;;;1.60;;
76978;SDS011;65911;47.502;19.148;2023-05-10T00:40:15;2.42;;;1.83;;
76978;SDS011;65911;47.502;19.148;2023-05-10T00:43:23;2.20;;;1.38;;
76978;SDS011;65911;47.502;19.148;2023-05-10T00:46:25;2.90;;;1.80;;
76978;SDS011;65911;47.502;19.148;2023-05-10T00:49:27;2.58;;;1.60;;
76978;SDS011;65911;47.502;19.148;2023-05-10T00:52:30;2.40;;;1.88;;
76978;SDS011;65911;47.502;19.148;2023-05-10T00:55:33;2.75;;;1.77;;
76978;SDS011;65911;47.502;19.148;2023-05-10T00:58:35;4.15;;;1.80;;
76978;SDS011;65911;47.502;19.148;2023-05-10T01:01:38;2.05;;;1.38;;
76978;SDS011;65911;47.502;19.148;2023-05-10T01:04:40;4.53;;;1.70;;
76978;SDS011;65911;47.502;19.148;2023-05-10T01:07:43;4.23;;;1.40;;
76978;SDS011;65911;47.502;19.148;2023-05-10T01:10:45;1.95;;;1.48;;
76978;SDS011;65911;47.502;19.148;2023-05-10T01:13:50;4.00;;;1.40;;
76978;SDS011;65911;47.502;19.148;2023-05-10T01:16:54;3.37;;;2.10;;
76978;SDS011;65911;47.502;19.148;2023-05-10T01:19:56;4.72;;;1.60;;
76978;SDS011;65911;47.502;19.148;2023-05-10T01:29:42;2.03;;;1.60;;
76978;SDS011;65911;47.502;19.148;2023-05-10T01:36:30;2.60;;;2.00;;
76978;SDS011;65911;47.502;19.148;2023-05-10T01:43:22;2.72;;;1.90;;
76978;SDS011;65911;47.502;19.148;2023-05-10T01:46:28;2.58;;;1.75;;
76978;SDS011;65911;47.502;19.148;2023-05-10T01:49:35;3.47;;;1.77;;
76978;SDS011;65911;47.502;19.148;2023-05-10T01:52:42;5.07;;;2.42;;
76978;SDS011;65911;47.502;19.148;2023-05-10T01:55:50;2.78;;;2.00;;
76978;SDS011;65911;47.502;19.148;2023-05-10T01:58:54;2.60;;;2.28;;
76978;SDS011;65911;47.502;19.148;2023-05-10T02:01:57;2.65;;;1.70;;
76978;SDS011;65911;47.502;19.148;2023-05-10T02:05:00;3.47;;;2.03;;
76978;SDS011;65911;47.502;19.148;2023-05-10T02:08:06;4.18;;;1.77;;
76978;SDS011;65911;47.502;19.148;2023-05-10T02:11:11;2.50;;;1.50;;
76978;SDS011;65911;47.502;19.148;2023-05-10T02:14:15;3.97;;;1.67;;
76978;SDS011;65911;47.502;19.148;2023-05-10T02:17:17;3.78;;;1.65;;
76978;SDS011;65911;47.502;19.148;2023-05-10T02:20:20;2.70;;;1.90;;
76978;SDS011;65911;47.502;19.148;2023-05-10T02:23:24;2.15;;;1.70;;
76978;SDS011;65911;47.502;19.148;2023-05-10T02:26:27;2.15;;;1.63;;
76978;SDS011;65911;47.502;19.148;2023-05-10T02:29:29;2.83;;;1.65;;
76978;SDS011;65911;47.502;19.148;2023-05-10T02:32:33;2.83;;;1.50;;
76978;SDS011;65911;47.502;19.148;2023-05-10T02:35:36;2.58;;;1.50;;
76978;SDS011;65911;47.502;19.148;2023-05-10T02:38:39;1.75;;;1.65;;
76978;SDS011;65911;47.502;19.148;2023-05-10T02:41:42;2.00;;;1.50;;
76978;SDS011;65911;47.502;19.148;2023-05-10T02:44:45;2.33;;;1.55;;
76978;SDS011;65911;47.502;19.148;2023-05-10T02:47:49;2.17;;;1.55;;
76978;SDS011;65911;47.502;19.148;2023-05-10T02:50:52;2.47;;;1.50;;
76978;SDS011;65911;47.502;19.148;2023-05-10T02:53:54;1.73;;;1.42;;
76978;SDS011;65911;47.502;19.148;2023-05-10T02:56:58;2.15;;;1.65;;
76978;SDS011;65911;47.502;19.148;2023-05-10T03:00:04;3.72;;;1.63;;
76978;SDS011;65911;47.502;19.148;2023-05-10T03:03:07;3.25;;;1.70;;
76978;SDS011;65911;47.502;19.148;2023-05-10T03:06:10;2.15;;;1.63;;
76978;SDS011;65911;47.502;19.148;2023-05-10T03:09:12;2.17;;;1.60;;
76978;SDS011;65911;47.502;19.148;2023-05-10T03:22:26;2.23;;;1.50;;
76978;SDS011;65911;47.502;19.148;2023-05-10T03:25:31;2.85;;;1.73;;
76978;SDS011;65911;47.502;19.148;2023-05-10T03:28:36;2.67;;;1.60;;
76978;SDS011;65911;47.502;19.148;2023-05-10T03:31:39;3.05;;;1.65;;
76978;SDS011;65911;47.502;19.148;2023-05-10T03:34:42;2.10;;;1.70;;
76978;SDS011;65911;47.502;19.148;2023-05-10T03:37:47;2.15;;;1.50;;
76978;SDS011;65911;47.502;19.148;2023-05-10T03:40:49;2.25;;;1.55;;
76978;SDS011;65911;47.502;19.148;2023-05-10T03:43:51;2.53;;;1.40;;
76978;SDS011;65911;47.502;19.148;2023-05-10T03:46:54;2.08;;;1.50;;
76978;SDS011;65911;47.502;19.148;2023-05-10T03:49:56;2.08;;;1.63;;
76978;SDS011;65911;47.502;19.148;2023-05-10T03:52:58;3.40;;;1.67;;
76978;SDS011;65911;47.502;19.148;2023-05-10T03:56:02;3.47;;;1.83;;
76978;SDS011;65911;47.502;19.148;2023-05-10T03:59:04;2.55;;;1.80;;
76978;SDS011;65911;47.502;19.148;2023-05-10T04:02:09;2.13;;;1.73;;
76978;SDS011;65911;47.502;19.148;2023-05-10T04:05:11;2.53;;;1.90;;
76978;SDS011;65911;47.502;19.148;2023-05-10T04:08:14;2.60;;;1.90;;
76978;SDS011;65911;47.502;19.148;2023-05-10T04:11:18;2.53;;;1.75;;
76978;SDS011;65911;47.502;19.148;2023-05-10T04:14:20;4.67;;;1.80;;
76978;SDS011;65911;47.502;19.148;2023-05-10T04:17:22;2.97;;;1.73;;
76978;SDS011;65911;47.502;19.148;2023-05-10T04:20:24;2.35;;;1.67;;
76978;SDS011;65911;47.502;19.148;2023-05-10T04:23:27;2.20;;;2.00;;
76978;SDS011;65911;47.502;19.148;2023-05-10T04:26:29;5.57;;;1.67;;
76978;SDS011;65911;47.502;19.148;2023-05-10T04:29:31;5.30;;;2.08;;
76978;SDS011;65911;47.502;19.148;2023-05-10T04:32:33;3.05;;;2.10;;
76978;SDS011;65911;47.502;19.148;2023-05-10T04:35:36;2.83;;;1.85;;
76978;SDS011;65911;47.502;19.148;2023-05-10T04:38:38;2.38;;;1.88;;
76978;SDS011;65911;47.502;19.148;2023-05-10T04:41:40;2.78;;;1.90;;
76978;SDS011;65911;47.502;19.148;2023-05-10T04:44:43;4.30;;;1.80;;
76978;SDS011;65911;47.502;19.148;2023-05-10T04:47:45;2.15;;;1.88;;
76978;SDS011;65911;47.502;19.148;2023-05-10T04:50:47;2.88;;;1.90;;
76978;SDS011;65911;47.502;19.148;2023-05-10T04:53:49;4.87;;;2.10;;
76978;SDS011;65911;47.502;19.148;2023-05-10T04:57:05;3.67;;;2.65;;
76978;SDS011;65911;47.502;19.148;2023-05-10T05:00:08;3.35;;;2.10;;
76978;SDS011;65911;47.502;19.148;2023-05-10T05:03:10;2.92;;;2.25;;
76978;SDS011;65911;47.502;19.148;2023-05-10T05:06:13;3.92;;;1.73;;
76978;SDS011;65911;47.502;19.148;2023-05-10T05:09:15;4.90;;;1.88;;
76978;SDS011;65911;47.502;19.148;2023-05-10T05:12:18;3.28;;;2.10;;
76978;SDS011;65911;47.502;19.148;2023-05-10T05:15:20;2.77;;;2.00;;
76978;SDS011;65911;47.502;19.148;2023-05-10T05:18:22;3.58;;;2.08;;
76978;SDS011;65911;47.502;19.148;2023-05-10T05:21:24;2.90;;;2.00;;
76978;SDS011;65911;47.502;19.148;2023-05-10T05:24:28;2.67;;;2.00;;
76978;SDS011;65911;47.502;19.148;2023-05-10T05:27:30;5.97;;;1.90;;
76978;SDS011;65911;47.502;19.148;2023-05-10T05:30:33;4.45;;;1.80;;
76978;SDS011;65911;47.502;19.148;2023-05-10T05:33:35;4.22;;;2.25;;
76978;SDS011;65911;47.502;19.148;2023-05-10T05:36:37;4.15;;;2.50;;
76978;SDS011;65911;47.502;19.148;2023-05-10T05:39:42;2.88;;;2.10;;
76978;SDS011;65911;47.502;19.148;2023-05-10T05:42:45;5.05;;;2.30;;
76978;SDS011;65911;47.502;19.148;2023-05-10T05:45:47;2.10;;;1.90;;
76978;SDS011;65911;47.502;19.148;2023-05-10T05:48:49;3.28;;;2.15;;
76978;SDS011;65911;47.502;19.148;2023-05-10T05:51:51;3.45;;;1.95;;
76978;SDS011;65911;47.502;19.148;2023-05-10T05:54:53;2.67;;;1.73;;
76978;SDS011;65911;47.502;19.148;2023-05-10T05:57:56;5.80;;;2.20;;
76978;SDS011;65911;47.502;19.148;2023-05-10T06:00:58;3.70;;;2.15;;
76978;SDS011;65911;47.502;19.148;2023-05-10T06:04:00;2.25;;;1.80;;
76978;SDS011;65911;47.502;19.148;2023-05-10T06:07:03;2.63;;;1.80;;
76978;SDS011;65911;47.502;19.148;2023-05-10T06:10:05;3.42;;;1.90;;
76978;SDS011;65911;47.502;19.148;2023-05-10T06:13:08;3.20;;;2.40;;
76978;SDS011;65911;47.502;19.148;2023-05-10T06:16:10;2.00;;;1.80;;
76978;SDS011;65911;47.502;19.148;2023-05-10T06:19:13;4.15;;;2.47;;
76978;SDS011;65911;47.502;19.148;2023-05-10T06:22:15;2.75;;;2.00;;
76978;SDS011;65911;47.502;19.148;2023-05-10T06:25:17;3.80;;;2.00;;
76978;SDS011;65911;47.502;19.148;2023-05-10T06:28:20;2.60;;;1.90;;
76978;SDS011;65911;47.502;19.148;2023-05-10T06:31:22;2.88;;;2.00;;
76978;SDS011;65911;47.502;19.148;2023-05-10T06:34:25;3.72;;;2.33;;
76978;SDS011;65911;47.502;19.148;2023-05-10T06:37:27;3.38;;;2.20;;
76978;SDS011;65911;47.502;19.148;2023-05-10T06:40:29;2.05;;;1.65;;
76978;SDS011;65911;47.502;19.148;2023-05-10T06:43:32;3.28;;;2.30;;
76978;SDS011;65911;47.502;19.148;2023-05-10T06:46:34;2.30;;;1.70;;
76978;SDS011;65911;47.502;19.148;2023-05-10T06:49:37;4.47;;;2.65;;
76978;SDS011;65911;47.502;19.148;2023-05-10T06:52:42;3.08;;;2.15;;
76978;SDS011;65911;47.502;19.148;2023-05-10T06:55:45;2.80;;;2.40;;
76978;SDS011;65911;47.502;19.148;2023-05-10T06:58:47;3.97;;;2.53;;
76978;SDS011;65911;47.502;19.148;2023-05-10T07:01:50;3.35;;;2.30;;
76978;SDS011;65911;47.502;19.148;2023-05-10T07:04:52;6.60;;;2.70;;
76978;SDS011;65911;47.502;19.148;2023-05-10T07:07:55;3.28;;;2.80;;
76978;SDS011;65911;47.502;19.148;2023-05-10T07:11:04;4.30;;;2.22;;
76978;SDS011;65911;47.502;19.148;2023-05-10T07:14:08;4.78;;;2.63;;
76978;SDS011;65911;47.502;19.148;2023-05-10T07:17:11;3.90;;;2.53;;
76978;SDS011;65911;47.502;19.148;2023-05-10T07:20:13;3.67;;;2.25;;
76978;SDS011;65911;47.502;19.148;2023-05-10T07:23:16;2.83;;;2.30;;
76978;SDS011;65911;47.502;19.148;2023-05-10T07:26:19;2.57;;;2.23;;
76978;SDS011;65911;47.502;19.148;2023-05-10T07:29:22;4.43;;;2.40;;
76978;SDS011;65911;47.502;19.148;2023-05-10T07:32:25;2.42;;;2.00;;
76978;SDS011;65911;47.502;19.148;2023-05-10T07:35:27;2.85;;;2.10;;
76978;SDS011;65911;47.502;19.148;2023-05-10T07:38:29;2.67;;;2.20;;
76978;SDS011;65911;47.502;19.148;2023-05-10T07:41:31;3.65;;;2.00;;
76978;SDS011;65911;47.502;19.148;2023-05-10T07:44:36;3.08;;;1.95;;
76978;SDS011;65911;47.502;19.148;2023-05-10T07:47:38;2.53;;;2.03;;
76978;SDS011;65911;47.502;19.148;2023-05-10T07:50:40;4.22;;;2.28;;
76978;SDS011;65911;47.502;19.148;2023-05-10T07:53:43;3.97;;;2.22;;
76978;SDS011;65911;47.502;19.148;2023-05-10T07:56:45;2.60;;;2.30;;
76978;SDS011;65911;47.502;19.148;2023-05-10T07:59:48;3.33;;;1.73;;
76978;SDS011;65911;47.502;19.148;2023-05-10T08:02:50;3.65;;;2.20;;
76978;SDS011;65911;47.502;19.148;2023-05-10T08:05:53;5.95;;;2.15;;
76978;SDS011;65911;47.502;19.148;2023-05-10T08:08:55;2.22;;;2.03;;
76978;SDS011;65911;47.502;19.148;2023-05-10T08:11:57;3.28;;;1.77;;
76978;SDS011;65911;47.502;19.148;2023-05-10T08:15:01;3.40;;;1.40;;
76978;SDS011;65911;47.502;19.148;2023-05-10T08:18:03;3.13;;;1.80;;
76978;SDS011;65911;47.502;19.148;2023-05-10T08:21:06;3.20;;;2.08;;
76978;SDS011;65911;47.502;19.148;2023-05-10T08:24:08;2.97;;;1.98;;
76978;SDS011;65911;47.502;19.148;2023-05-10T08:27:11;2.20;;;2.00;;
76978;SDS011;65911;47.502;19.148;2023-05-10T08:30:15;1.95;;;1.75;;
76978;SDS011;65911;47.502;19.148;2023-05-10T08:33:17;3.72;;;1.85;;
76978;SDS011;65911;47.502;19.148;2023-05-10T08:36:20;2.35;;;1.80;;
76978;SDS011;65911;47.502;19.148;2023-05-10T08:39:23;1.92;;;1.38;;
76978;SDS011;65911;47.502;19.148;2023-05-10T08:42:32;2.35;;;1.88;;
76978;SDS011;65911;47.502;19.148;2023-05-10T08:45:37;1.60;;;1.50;;
76978;SDS011;65911;47.502;19.148;2023-05-10T08:48:41;3.33;;;2.20;;
76978;SDS011;65911;47.502;19.148;2023-05-10T08:51:47;2.40;;;1.80;;
76978;SDS011;65911;47.502;19.148;2023-05-10T08:54:52;2.47;;;1.88;;
76978;SDS011;65911;47.502;19.148;2023-05-10T08:57:55;3.47;;;2.43;;
76978;SDS011;65911;47.502;19.148;2023-05-10T09:00:57;1.92;;;1.58;;
76978;SDS011;65911;47.502;19.148;2023-05-10T09:03:59;1.70;;;1.60;;
76978;SDS011;65911;47.502;19.148;2023-05-10T09:07:02;3.28;;;1.80;;
76978;SDS011;65911;47.502;19.148;2023-05-10T09:10:12;4.07;;;1.80;;
76978;SDS011;65911;47.502;19.148;2023-05-10T09:13:15;4.68;;;2.17;;
76978;SDS011;65911;47.502;19.148;2023-05-10T09:16:32;2.33;;;2.00;;
76978;SDS011;65911;47.502;19.148;2023-05-10T09:19:34;1.73;;;1.63;;
76978;SDS011;65911;47.502;19.148;2023-05-10T09:22:37;3.90;;;2.08;;
76978;SDS011;65911;47.502;19.148;2023-05-10T09:25:41;3.53;;;1.58;;
76978;SDS011;65911;47.502;19.148;2023-05-10T09:28:56;3.10;;;1.80;;
76978;SDS011;65911;47.502;19.148;2023-05-10T09:32:00;5.68;;;1.90;;
76978;SDS011;65911;47.502;19.148;2023-05-10T09:35:21;3.17;;;1.92;;
76978;SDS011;65911;47.502;19.148;2023-05-10T09:38:27;3.13;;;2.20;;
76978;SDS011;65911;47.502;19.148;2023-05-10T09:41:30;2.10;;;1.90;;
76978;SDS011;65911;47.502;19.148;2023-05-10T09:44:32;4.45;;;1.90;;
76978;SDS011;65911;47.502;19.148;2023-05-10T09:47:35;2.67;;;1.92;;
76978;SDS011;65911;47.502;19.148;2023-05-10T09:50:38;2.50;;;1.60;;
76978;SDS011;65911;47.502;19.148;2023-05-10T09:53:40;4.32;;;2.30;;
76978;SDS011;65911;47.502;19.148;2023-05-10T09:56:42;3.55;;;1.70;;
76978;SDS011;65911;47.502;19.148;2023-05-10T09:59:44;3.07;;;1.80;;
76978;SDS011;65911;47.502;19.148;2023-05-10T10:02:48;3.42;;;1.30;;
76978;SDS011;65911;47.502;19.148;2023-05-10T10:05:55;1.92;;;1.70;;
76978;SDS011;65911;47.502;19.148;2023-05-10T10:08:58;3.20;;;2.03;;
76978;SDS011;65911;47.502;19.148;2023-05-10T10:12:01;1.63;;;1.45;;
76978;SDS011;65911;47.502;19.148;2023-05-10T10:15:04;1.75;;;1.65;;
76978;SDS011;65911;47.502;19.148;2023-05-10T10:18:07;3.92;;;2.00;;
76978;SDS011;65911;47.502;19.148;2023-05-10T10:21:10;1.70;;;1.33;;
76978;SDS011;65911;47.502;19.148;2023-05-10T10:24:12;2.38;;;1.20;;
76978;SDS011;65911;47.502;19.148;2023-05-10T10:30:42;1.77;;;1.67;;
76978;SDS011;65911;47.502;19.148;2023-05-10T10:34:05;3.38;;;1.23;;
76978;SDS011;65911;47.502;19.148;2023-05-10T10:37:08;2.15;;;1.35;;
76978;SDS011;65911;47.502;19.148;2023-05-10T10:43:45;2.97;;;1.10;;
76978;SDS011;65911;47.502;19.148;2023-05-10T10:50:06;1.92;;;1.30;;
76978;SDS011;65911;47.502;19.148;2023-05-10T10:53:10;2.93;;;1.07;;
76978;SDS011;65911;47.502;19.148;2023-05-10T10:56:14;2.10;;;1.45;;
76978;SDS011;65911;47.502;19.148;2023-05-10T10:59:26;2.00;;;1.40;;
76978;SDS011;65911;47.502;19.148;2023-05-10T11:02:32;1.30;;;1.20;;
76978;SDS011;65911;47.502;19.148;2023-05-10T11:08:41;1.95;;;1.60;;
76978;SDS011;65911;47.502;19.148;2023-05-10T11:11:51;1.90;;;1.20;;
76978;SDS011;65911;47.502;19.148;2023-05-10T11:14:56;1.85;;;1.60;;
76978;SDS011;65911;47.502;19.148;2023-05-10T11:17:59;2.17;;;1.40;;
76978;SDS011;65911;47.502;19.148;2023-05-10T11:21:02;1.40;;;1.20;;
76978;SDS011;65911;47.502;19.148;2023-05-10T11:24:12;1.23;;;0.93;;
76978;SDS011;65911;47.502;19.148;2023-05-10T11:27:15;1.33;;;1.23;;
76978;SDS011;65911;47.502;19.148;2023-05-10T11:30:17;1.30;;;1.20;;
76978;SDS011;65911;47.502;19.148;2023-05-10T11:33:20;1.37;;;1.13;;
76978;SDS011;65911;47.502;19.148;2023-05-10T11:36:26;2.83;;;1.00;;
76978;SDS011;65911;47.502;19.148;2023-05-10T11:39:30;2.42;;;1.23;;
76978;SDS011;65911;47.502;19.148;2023-05-10T11:42:33;5.13;;;1.27;;
76978;SDS011;65911;47.502;19.148;2023-05-10T11:45:35;2.30;;;1.30;;
76978;SDS011;65911;47.502;19.148;2023-05-10T11:48:38;2.13;;;1.20;;
76978;SDS011;65911;47.502;19.148;2023-05-10T11:51:41;1.98;;;1.42;;
76978;SDS011;65911;47.502;19.148;2023-05-10T11:54:50;1.83;;;0.93;;
76978;SDS011;65911;47.502;19.148;2023-05-10T11:57:54;1.98;;;0.90;;
76978;SDS011;65911;47.502;19.148;2023-05-10T12:00:59;1.70;;;1.17;;
76978;SDS011;65911;47.502;19.148;2023-05-10T12:04:01;2.37;;;1.20;;
76978;SDS011;65911;47.502;19.148;2023-05-10T12:07:07;2.60;;;0.90;;
76978;SDS011;65911;47.502;19.148;2023-05-10T12:10:25;1.50;;;1.40;;
76978;SDS011;65911;47.502;19.148;2023-05-10T12:13:28;1.85;;;0.98;;
76978;SDS011;65911;47.502;19.148;2023-05-10T12:16:30;3.30;;;0.95;;
76978;SDS011;65911;47.502;19.148;2023-05-10T12:19:39;2.00;;;1.20;;
76978;SDS011;65911;47.502;19.148;2023-05-10T12:22:45;2.45;;;0.80;;
76978;SDS011;65911;47.502;19.148;2023-05-10T12:25:51;3.53;;;0.83;;
76978;SDS011;65911;47.502;19.148;2023-05-10T12:29:11;2.20;;;1.10;;
76978;SDS011;65911;47.502;19.148;2023-05-10T12:32:14;2.72;;;1.13;;
76978;SDS011;65911;47.502;19.148;2023-05-10T12:35:16;1.63;;;0.97;;
76978;SDS011;65911;47.502;19.148;2023-05-10T12:41:31;1.75;;;1.00;;
76978;SDS011;65911;47.502;19.148;2023-05-10T12:44:33;3.05;;;0.90;;
76978;SDS011;65911;47.502;19.148;2023-05-10T12:47:35;1.63;;;0.70;;
76978;SDS011;65911;47.502;19.148;2023-05-10T12:50:38;2.08;;;1.10;;
76978;SDS011;65911;47.502;19.148;2023-05-10T12:53:40;3.92;;;0.95;;
76978;SDS011;65911;47.502;19.148;2023-05-10T12:56:47;2.80;;;0.97;;
76978;SDS011;65911;47.502;19.148;2023-05-10T12:59:52;3.63;;;0.93;;
76978;SDS011;65911;47.502;19.148;2023-05-10T13:03:14;2.60;;;1.20;;
76978;SDS011;65911;47.502;19.148;2023-05-10T13:06:32;2.57;;;1.20;;
76978;SDS011;65911;47.502;19.148;2023-05-10T13:09:39;1.33;;;0.85;;
76978;SDS011;65911;47.502;19.148;2023-05-10T13:12:42;1.00;;;0.90;;
76978;SDS011;65911;47.502;19.148;2023-05-10T13:15:45;3.35;;;1.20;;
76978;SDS011;65911;47.502;19.148;2023-05-10T13:18:47;1.42;;;1.10;;
76978;SDS011;65911;47.502;19.148;2023-05-10T13:21:49;1.33;;;1.00;;
76978;SDS011;65911;47.502;19.148;2023-05-10T13:24:51;1.83;;;0.52;;
76978;SDS011;65911;47.502;19.148;2023-05-10T13:27:55;1.70;;;0.60;;
76978;SDS011;65911;47.502;19.148;2023-05-10T13:30:57;2.22;;;0.80;;
76978;SDS011;65911;47.502;19.148;2023-05-10T13:34:02;1.55;;;1.00;;
76978;SDS011;65911;47.502;19.148;2023-05-10T13:37:04;0.80;;;0.80;;
76978;SDS011;65911;47.502;19.148;2023-05-10T13:40:06;0.90;;;0.63;;
76978;SDS011;65911;47.502;19.148;2023-05-10T13:43:09;0.93;;;0.82;;
76978;SDS011;65911;47.502;19.148;2023-05-10T13:46:11;1.20;;;0.82;;
76978;SDS011;65911;47.502;19.148;2023-05-10T13:49:18;1.98;;;0.98;;
76978;SDS011;65911;47.502;19.148;2023-05-10T13:56:57;1.05;;;0.80;;
76978;SDS011;65911;47.502;19.148;2023-05-10T14:00:01;1.07;;;0.60;;
76978;SDS011;65911;47.502;19.148;2023-05-10T14:03:08;3.17;;;0.95;;
76978;SDS011;65911;47.502;19.148;2023-05-10T14:06:13;0.73;;;0.60;;
76978;SDS011;65911;47.502;19.148;2023-05-10T14:09:15;1.00;;;0.87;;
76978;SDS011;65911;47.502;19.148;2023-05-10T14:12:18;1.80;;;0.88;;
76978;SDS011;65911;47.502;19.148;2023-05-10T14:15:20;1.25;;;0.55;;
76978;SDS011;65911;47.502;19.148;2023-05-10T14:18:22;1.38;;;0.90;;
76978;SDS011;65911;47.502;19.148;2023-05-10T14:21:25;2.38;;;0.70;;
76978;SDS011;65911;47.502;19.148;2023-05-10T14:24:27;1.52;;;0.77;;
76978;SDS011;65911;47.502;19.148;2023-05-10T14:27:29;0.95;;;0.65;;
76978;SDS011;65911;47.502;19.148;2023-05-10T14:30:32;0.87;;;0.60;;
76978;SDS011;65911;47.502;19.148;2023-05-10T14:33:37;1.10;;;0.63;;
76978;SDS011;65911;47.502;19.148;2023-05-10T14:36:39;1.23;;;0.70;;
76978;SDS011;65911;47.502;19.148;2023-05-10T14:39:42;1.70;;;0.80;;
76978;SDS011;65911;47.502;19.148;2023-05-10T14:42:44;1.67;;;0.45;;
76978;SDS011;65911;47.502;19.148;2023-05-10T14:45:46;0.68;;;0.40;;
76978;SDS011;65911;47.502;19.148;2023-05-10T14:48:49;2.80;;;0.65;;
76978;SDS011;65911;47.502;19.148;2023-05-10T14:51:51;1.17;;;0.63;;
76978;SDS011;65911;47.502;19.148;2023-05-10T14:54:54;1.42;;;0.80;;
76978;SDS011;65911;47.502;19.148;2023-05-10T14:57:56;1.35;;;0.57;;
76978;SDS011;65911;47.502;19.148;2023-05-10T15:00:58;3.37;;;0.70;;
76978;SDS011;65911;47.502;19.148;2023-05-10T15:04:00;2.05;;;0.63;;
76978;SDS011;65911;47.502;19.148;2023-05-10T15:07:03;2.22;;;0.60;;
76978;SDS011;65911;47.502;19.148;2023-05-10T15:10:06;1.45;;;0.57;;
76978;SDS011;65911;47.502;19.148;2023-05-10T15:13:08;0.68;;;0.60;;
76978;SDS011;65911;47.502;19.148;2023-05-10T15:16:10;0.98;;;0.47;;
76978;SDS011;65911;47.502;19.148;2023-05-10T15:19:12;1.45;;;0.68;;
76978;SDS011;65911;47.502;19.148;2023-05-10T15:22:15;1.17;;;0.57;;
76978;SDS011;65911;47.502;19.148;2023-05-10T15:25:17;2.10;;;0.65;;
76978;SDS011;65911;47.502;19.148;2023-05-10T15:28:20;1.38;;;0.73;;
76978;SDS011;65911;47.502;19.148;2023-05-10T15:31:22;0.90;;;0.70;;
76978;SDS011;65911;47.502;19.148;2023-05-10T15:34:24;1.42;;;0.70;;
76978;SDS011;65911;47.502;19.148;2023-05-10T15:37:26;1.58;;;0.40;;
76978;SDS011;65911;47.502;19.148;2023-05-10T15:40:29;0.80;;;0.60;;
76978;SDS011;65911;47.502;19.148;2023-05-10T15:43:31;1.17;;;0.90;;
76978;SDS011;65911;47.502;19.148;2023-05-10T15:46:33;2.50;;;0.52;;
76978;SDS011;65911;47.502;19.148;2023-05-10T15:49:35;1.85;;;0.80;;
76978;SDS011;65911;47.502;19.148;2023-05-10T15:52:38;2.73;;;0.50;;
76978;SDS011;65911;47.502;19.148;2023-05-10T15:55:40;2.17;;;0.55;;
76978;SDS011;65911;47.502;19.148;2023-05-10T15:58:42;1.23;;;0.65;;
76978;SDS011;65911;47.502;19.148;2023-05-10T16:01:44;2.40;;;0.63;;
76978;SDS011;65911;47.502;19.148;2023-05-10T16:04:47;2.72;;;0.73;;
76978;SDS011;65911;47.502;19.148;2023-05-10T16:07:49;3.80;;;1.25;;
76978;SDS011;65911;47.502;19.148;2023-05-10T16:10:51;1.73;;;0.90;;
76978;SDS011;65911;47.502;19.148;2023-05-10T16:13:53;1.33;;;0.70;;
76978;SDS011;65911;47.502;19.148;2023-05-10T16:16:55;0.95;;;0.50;;
76978;SDS011;65911;47.502;19.148;2023-05-10T16:19:58;1.20;;;0.70;;
76978;SDS011;65911;47.502;19.148;2023-05-10T16:23:03;1.07;;;0.73;;
76978;SDS011;65911;47.502;19.148;2023-05-10T16:26:06;1.65;;;0.55;;
76978;SDS011;65911;47.502;19.148;2023-05-10T16:29:09;1.80;;;0.60;;
76978;SDS011;65911;47.502;19.148;2023-05-10T16:32:11;2.77;;;0.90;;
76978;SDS011;65911;47.502;19.148;2023-05-10T16:35:13;2.92;;;0.93;;
76978;SDS011;65911;47.502;19.148;2023-05-10T16:38:16;3.95;;;1.30;;
76978;SDS011;65911;47.502;19.148;2023-05-10T16:41:18;1.13;;;1.00;;
76978;SDS011;65911;47.502;19.148;2023-05-10T16:44:21;2.33;;;1.20;;
76978;SDS011;65911;47.502;19.148;2023-05-10T16:47:26;1.23;;;0.90;;
76978;SDS011;65911;47.502;19.148;2023-05-10T16:50:28;1.95;;;1.13;;
76978;SDS011;65911;47.502;19.148;2023-05-10T16:53:31;1.07;;;0.80;;
76978;SDS011;65911;47.502;19.148;2023-05-10T16:56:33;2.33;;;1.02;;
76978;SDS011;65911;47.502;19.148;2023-05-10T16:59:35;1.65;;;1.00;;
76978;SDS011;65911;47.502;19.148;2023-05-10T17:02:37;2.83;;;1.10;;
76978;SDS011;65911;47.502;19.148;2023-05-10T17:05:40;1.40;;;1.00;;
76978;SDS011;65911;47.502;19.148;2023-05-10T17:08:43;1.98;;;1.00;;
76978;SDS011;65911;47.502;19.148;2023-05-10T17:11:45;1.98;;;1.20;;
76978;SDS011;65911;47.502;19.148;2023-05-10T17:14:47;2.13;;;1.17;;
76978;SDS011;65911;47.502;19.148;2023-05-10T17:17:50;1.77;;;1.20;;
76978;SDS011;65911;47.502;19.148;2023-05-10T17:20:52;3.38;;;0.93;;
76978;SDS011;65911;47.502;19.148;2023-05-10T17:23:54;1.67;;;1.00;;
76978;SDS011;65911;47.502;19.148;2023-05-10T17:26:56;3.75;;;1.17;;
76978;SDS011;65911;47.502;19.148;2023-05-10T17:29:58;1.70;;;0.88;;
76978;SDS011;65911;47.502;19.148;2023-05-10T17:33:01;3.30;;;1.33;;
76978;SDS011;65911;47.502;19.148;2023-05-10T17:36:03;1.25;;;1.00;;
76978;SDS011;65911;47.502;19.148;2023-05-10T17:39:05;2.45;;;1.02;;
76978;SDS011;65911;47.502;19.148;2023-05-10T17:42:07;1.92;;;0.77;;
76978;SDS011;65911;47.502;19.148;2023-05-10T17:45:10;5.18;;;1.25;;
76978;SDS011;65911;47.502;19.148;2023-05-10T17:48:12;1.90;;;0.70;;
76978;SDS011;65911;47.502;19.148;2023-05-10T17:51:14;1.67;;;1.23;;
76978;SDS011;65911;47.502;19.148;2023-05-10T17:54:17;4.27;;;0.90;;
76978;SDS011;65911;47.502;19.148;2023-05-10T17:57:19;1.30;;;1.02;;
76978;SDS011;65911;47.502;19.148;2023-05-10T18:00:21;3.17;;;1.20;;
76978;SDS011;65911;47.502;19.148;2023-05-10T18:03:23;2.63;;;1.50;;
76978;SDS011;65911;47.502;19.148;2023-05-10T18:06:26;1.10;;;0.88;;
76978;SDS011;65911;47.502;19.148;2023-05-10T18:09:28;1.70;;;1.00;;
76978;SDS011;65911;47.502;19.148;2023-05-10T18:12:30;2.47;;;1.25;;
76978;SDS011;65911;47.502;19.148;2023-05-10T18:15:33;1.48;;;1.10;;
76978;SDS011;65911;47.502;19.148;2023-05-10T18:18:36;4.30;;;1.02;;
76978;SDS011;65911;47.502;19.148;2023-05-10T18:21:38;3.33;;;1.00;;
76978;SDS011;65911;47.502;19.148;2023-05-10T18:24:41;2.23;;;1.30;;
76978;SDS011;65911;47.502;19.148;2023-05-10T18:27:43;1.52;;;1.00;;
76978;SDS011;65911;47.502;19.148;2023-05-10T18:30:45;1.60;;;0.93;;
76978;SDS011;65911;47.502;19.148;2023-05-10T18:33:47;1.70;;;1.20;;
76978;SDS011;65911;47.502;19.148;2023-05-10T18:36:50;2.65;;;1.05;;
76978;SDS011;65911;47.502;19.148;2023-05-10T18:39:52;1.58;;;1.05;;
76978;SDS011;65911;47.502;19.148;2023-05-10T18:42:55;2.83;;;1.00;;
76978;SDS011;65911;47.502;19.148;2023-05-10T18:45:57;1.52;;;1.30;;
76978;SDS011;65911;47.502;19.148;2023-05-10T18:48:59;7.22;;;1.30;;
76978;SDS011;65911;47.502;19.148;2023-05-10T18:52:02;2.70;;;1.20;;